createdAt,value
2022-08-27T00:01:04.006Z,18.60
2022-08-27T00:03:45.005Z,19.63
2022-08-27T00:06:19.919Z,19.00
2022-08-27T00:08:53.669Z,19.10
2022-08-27T00:11:28.945Z,19.38
2022-08-27T00:14:10.066Z,19.55
2022-08-27T00:16:44.371Z,20.17
2022-08-27T00:19:19.560Z,19.33
2022-08-27T00:21:53.485Z,20.52
2022-08-27T00:24:28.045Z,19.38
2022-08-27T00:27:01.855Z,19.80
2022-08-27T00:29:35.963Z,20.50
2022-08-27T00:32:10.529Z,23.53
2022-08-27T00:34:46.633Z,20.97
2022-08-27T00:37:20.359Z,21.10
2022-08-27T00:39:53.323Z,20.80
2022-08-27T00:42:26.735Z,19.37
2022-08-27T00:45:04.753Z,20.50
2022-08-27T00:47:41.208Z,19.50
2022-08-27T00:50:19.411Z,19.67
2022-08-27T00:52:57.044Z,18.90
2022-08-27T00:55:37.173Z,19.00
2022-08-27T00:58:16.431Z,19.40
2022-08-27T01:00:53.138Z,19.53
2022-08-27T01:03:27.219Z,18.30
2022-08-27T01:06:04.894Z,18.48
2022-08-27T01:08:43.236Z,18.70
2022-08-27T01:11:17.813Z,17.63
2022-08-27T01:13:59.654Z,17.95
2022-08-27T01:16:39.088Z,18.33
2022-08-27T01:19:37.053Z,17.77
2022-08-27T01:22:23.083Z,17.88
2022-08-27T01:25:02.671Z,17.20
2022-08-27T01:27:36.638Z,17.40
2022-08-27T01:30:13.214Z,16.97
2022-08-27T01:32:50.159Z,17.50
2022-08-27T01:35:28.574Z,17.52
2022-08-27T01:38:02.302Z,17.38
2022-08-27T01:40:37.590Z,17.80
2022-08-27T01:43:12.174Z,18.20
2022-08-27T01:45:49.758Z,18.73
2022-08-27T01:48:24.451Z,19.00
2022-08-27T01:50:58.348Z,18.58
2022-08-27T01:53:32.495Z,16.88
2022-08-27T01:56:08.148Z,17.95
2022-08-27T01:58:41.071Z,17.73
2022-08-27T02:01:17.815Z,16.45
2022-08-27T02:03:51.710Z,17.25
2022-08-27T02:06:25.637Z,17.17
2022-08-27T02:08:58.943Z,17.52
2022-08-27T02:11:34.252Z,16.38
2022-08-27T02:14:19.055Z,15.75
2022-08-27T02:16:53.038Z,16.25
2022-08-27T02:19:26.418Z,16.67
2022-08-27T02:22:01.951Z,16.42
2022-08-27T02:24:35.931Z,16.98
2022-08-27T02:27:11.677Z,16.92
2022-08-27T02:29:46.715Z,17.52
2022-08-27T02:32:32.193Z,17.17
2022-08-27T02:35:06.789Z,17.88
2022-08-27T02:37:40.806Z,17.95
2022-08-27T02:40:17.925Z,18.85
2022-08-27T02:42:53.408Z,18.38
2022-08-27T02:45:27.365Z,18.92
2022-08-27T02:48:00.968Z,18.48
2022-08-27T02:50:35.275Z,18.30
2022-08-27T02:53:10.332Z,19.85
2022-08-27T02:55:44.082Z,19.77
2022-08-27T02:58:18.904Z,19.67
2022-08-27T03:00:53.014Z,20.35
2022-08-27T03:03:26.867Z,20.40
2022-08-27T03:06:01.508Z,20.92
2022-08-27T03:08:51.995Z,21.23
2022-08-27T03:11:28.730Z,20.95
2022-08-27T03:14:04.378Z,20.85
2022-08-27T03:16:39.485Z,19.30
2022-08-27T03:19:13.040Z,20.33
2022-08-27T03:21:54.377Z,19.48
2022-08-27T03:24:27.788Z,20.67
2022-08-27T03:27:04.036Z,21.35
2022-08-27T03:29:40.204Z,21.30
2022-08-27T03:32:13.964Z,22.63
2022-08-27T03:34:48.076Z,24.02
2022-08-27T03:37:20.975Z,21.63
2022-08-27T03:39:54.108Z,21.67
2022-08-27T03:42:27.032Z,21.83
2022-08-27T03:45:02.324Z,21.30
2022-08-27T03:47:37.580Z,20.27
2022-08-27T03:50:16.133Z,20.63
2022-08-27T03:52:51.454Z,21.55
2022-08-27T03:55:27.115Z,21.48
2022-08-27T03:58:01.135Z,23.15
2022-08-27T04:00:53.308Z,19.65
2022-08-27T04:03:30.638Z,19.77
2022-08-27T04:06:04.543Z,22.50
2022-08-27T04:08:38.384Z,20.15
2022-08-27T04:11:11.976Z,20.98
2022-08-27T04:13:45.300Z,22.02
2022-08-27T04:16:20.657Z,20.88
2022-08-27T04:18:54.280Z,21.17
2022-08-27T04:21:28.236Z,20.33
2022-08-27T04:24:01.977Z,20.52
2022-08-27T04:26:35.478Z,21.42
2022-08-27T04:29:09.451Z,21.05
2022-08-27T04:31:45.345Z,20.60
2022-08-27T04:34:20.255Z,21.98
2022-08-27T04:36:54.672Z,21.75
2022-08-27T04:39:29.502Z,20.55
2022-08-27T04:42:07.895Z,20.92
2022-08-27T04:44:44.356Z,19.13
2022-08-27T04:47:20.008Z,21.55
2022-08-27T04:49:52.993Z,20.52
2022-08-27T04:52:27.116Z,19.60
2022-08-27T04:55:00.972Z,20.67
2022-08-27T04:57:36.035Z,22.02
2022-08-27T05:00:10.730Z,21.58
2022-08-27T05:02:46.693Z,21.83
2022-08-27T05:05:21.066Z,22.23
2022-08-27T05:07:55.402Z,21.15
2022-08-27T05:10:29.318Z,23.17
2022-08-27T05:13:04.104Z,21.17
2022-08-27T05:15:38.158Z,20.83
2022-08-27T05:18:14.860Z,21.45
2022-08-27T05:20:50.927Z,22.13
2022-08-27T05:23:25.444Z,22.65
2022-08-27T05:26:03.049Z,22.17
2022-08-27T05:28:37.289Z,23.40
2022-08-27T05:31:12.291Z,24.42
2022-08-27T05:33:48.493Z,27.08
2022-08-27T05:36:24.505Z,23.85
2022-08-27T05:38:59.839Z,23.42
2022-08-27T05:41:35.335Z,23.60
2022-08-27T05:44:40.042Z,25.02
2022-08-27T05:47:09.774Z,24.58
2022-08-27T05:49:50.706Z,24.30
2022-08-27T05:52:25.411Z,27.23
2022-08-27T05:54:59.763Z,25.70
2022-08-27T05:57:33.481Z,25.00
2022-08-27T06:00:23.501Z,23.33
2022-08-27T06:02:57.689Z,23.27
2022-08-27T06:05:34.190Z,24.40
2022-08-27T06:08:08.487Z,22.45
2022-08-27T06:10:46.424Z,21.63
2022-08-27T06:13:21.055Z,21.98
2022-08-27T06:15:55.886Z,19.95
2022-08-27T06:18:29.644Z,20.05
2022-08-27T06:21:05.148Z,19.80
2022-08-27T06:23:40.059Z,19.52
2022-08-27T06:26:15.041Z,20.17
2022-08-27T06:28:48.614Z,19.77
2022-08-27T06:31:24.139Z,20.33
2022-08-27T06:34:07.274Z,19.08
2022-08-27T06:36:44.824Z,18.70
2022-08-27T06:39:18.919Z,18.67
2022-08-27T06:41:53.391Z,16.90
2022-08-27T06:44:28.694Z,16.95
2022-08-27T06:47:05.014Z,17.08
2022-08-27T06:49:39.706Z,16.98
2022-08-27T06:52:15.742Z,17.60
2022-08-27T06:54:49.725Z,16.92
2022-08-27T06:57:25.273Z,18.42
2022-08-27T06:59:59.895Z,18.80
2022-08-27T07:02:34.369Z,18.00
2022-08-27T07:05:09.169Z,16.00
2022-08-27T07:07:48.590Z,17.70
2022-08-27T07:10:23.239Z,16.65
2022-08-27T07:12:57.480Z,17.95
2022-08-27T07:15:31.699Z,16.38
2022-08-27T07:18:09.775Z,16.17
2022-08-27T07:20:46.534Z,16.60
2022-08-27T07:23:22.861Z,15.93
2022-08-27T07:25:57.123Z,16.67
2022-08-27T07:28:32.185Z,17.17
2022-08-27T07:31:06.479Z,17.15
2022-08-27T07:33:45.394Z,18.67
2022-08-27T07:39:15.238Z,19.92
2022-08-27T07:42:05.506Z,18.83
2022-08-27T07:44:40.015Z,17.70
2022-08-27T07:47:15.070Z,17.90
2022-08-27T07:49:49.096Z,17.80
2022-08-27T07:52:26.445Z,17.27
2022-08-27T07:55:02.888Z,17.30
2022-08-27T07:57:37.230Z,17.10
2022-08-27T08:00:14.023Z,16.90
2022-08-27T08:02:48.868Z,16.63
2022-08-27T08:05:23.331Z,15.07
2022-08-27T08:07:57.543Z,15.55
2022-08-27T08:10:35.472Z,14.45
2022-08-27T08:13:13.188Z,14.55
2022-08-27T08:15:50.914Z,14.30
2022-08-27T08:18:25.181Z,13.35
2022-08-27T08:21:03.790Z,13.23
2022-08-27T08:23:43.841Z,13.38
2022-08-27T08:26:19.970Z,14.15
2022-08-27T08:28:54.418Z,14.00
2022-08-27T08:31:28.866Z,13.82
2022-08-27T08:34:02.858Z,14.35
2022-08-27T08:36:38.267Z,14.48
2022-08-27T08:39:11.494Z,14.30
2022-08-27T08:41:50.866Z,13.52
2022-08-27T08:44:33.860Z,13.48
2022-08-27T08:47:12.017Z,13.73
2022-08-27T08:49:53.381Z,12.93
2022-08-27T08:52:42.169Z,14.25
2022-08-27T08:55:49.793Z,13.63
2022-08-27T08:58:38.266Z,13.88
2022-08-27T09:01:13.826Z,14.45
2022-08-27T09:03:52.207Z,14.45
2022-08-27T09:06:36.913Z,14.82
2022-08-27T09:09:22.959Z,14.43
2022-08-27T09:12:03.231Z,14.38
2022-08-27T09:14:46.225Z,14.55
2022-08-27T09:17:24.955Z,14.02
2022-08-27T09:19:59.365Z,14.60
2022-08-27T09:22:45.571Z,14.88
2022-08-27T09:25:25.315Z,14.73
2022-08-27T09:28:01.082Z,15.27
2022-08-27T09:30:44.818Z,14.77
2022-08-27T09:33:18.393Z,14.90
2022-08-27T09:35:53.640Z,15.23
2022-08-27T09:38:33.773Z,15.23
2022-08-27T09:41:11.949Z,15.15
2022-08-27T09:43:45.343Z,15.52
2022-08-27T09:46:27.095Z,16.80
2022-08-27T09:49:00.632Z,17.38
2022-08-27T09:51:36.682Z,16.25
2022-08-27T09:54:11.487Z,15.57
2022-08-27T09:56:51.749Z,15.45
2022-08-27T09:59:28.321Z,15.02
2022-08-27T10:02:11.211Z,15.90
2022-08-27T10:04:50.627Z,15.10
2022-08-27T10:07:37.270Z,18.02
2022-08-27T10:10:16.871Z,14.50
2022-08-27T10:12:59.630Z,15.27
2022-08-27T10:15:41.913Z,14.68
2022-08-27T10:18:28.643Z,14.57
2022-08-27T10:21:10.142Z,14.35
2022-08-27T10:23:51.557Z,14.68
2022-08-27T10:26:33.761Z,14.15
2022-08-27T10:29:24.949Z,14.82
2022-08-27T10:32:10.259Z,13.95
2022-08-27T10:34:55.188Z,13.90
2022-08-27T10:37:40.567Z,14.23
2022-08-27T10:40:20.866Z,14.48
2022-08-27T10:43:05.060Z,15.93
2022-08-27T10:45:49.087Z,15.10
2022-08-27T10:48:30.628Z,15.23
2022-08-27T10:51:13.939Z,16.02
2022-08-27T10:53:54.749Z,15.95
2022-08-27T10:56:34.251Z,16.30
2022-08-27T10:59:17.367Z,20.35
2022-08-27T11:01:55.089Z,17.73
2022-08-27T11:04:34.218Z,16.85
2022-08-27T11:07:16.968Z,17.77
2022-08-27T11:09:57.145Z,17.10
2022-08-27T11:12:36.601Z,16.02
2022-08-27T11:15:17.060Z,16.13
2022-08-27T11:17:57.645Z,16.98
2022-08-27T11:20:35.346Z,17.02
2022-08-27T11:23:14.653Z,17.00
2022-08-27T11:26:02.353Z,16.55
2022-08-27T11:28:40.229Z,17.05
2022-08-27T11:31:20.993Z,16.52
2022-08-27T11:34:09.052Z,17.15
2022-08-27T11:37:11.563Z,17.45
2022-08-27T11:40:15.696Z,18.45
2022-08-27T11:42:53.157Z,18.50
2022-08-27T11:45:32.124Z,17.20
2022-08-27T11:48:17.587Z,18.23
2022-08-27T11:51:02.349Z,17.42
2022-08-27T11:53:52.042Z,18.08
2022-08-27T11:56:43.918Z,17.85
2022-08-27T11:59:26.507Z,16.90
2022-08-27T12:02:02.218Z,18.27
2022-08-27T12:04:41.521Z,17.85
2022-08-27T12:07:38.732Z,18.20
2022-08-27T12:10:28.134Z,18.80
2022-08-27T12:13:21.239Z,17.63
2022-08-27T12:16:02.218Z,18.75
2022-08-27T12:19:04.350Z,18.05
2022-08-27T12:21:52.676Z,19.02
2022-08-27T12:24:47.470Z,18.38
2022-08-27T12:27:39.855Z,18.48
2022-08-27T12:30:30.434Z,19.15
2022-08-27T12:33:12.607Z,19.02
2022-08-27T12:35:51.451Z,18.58
2022-08-27T12:38:30.069Z,18.80
2022-08-27T12:41:06.362Z,19.00
2022-08-27T12:43:44.668Z,19.67
2022-08-27T12:46:23.699Z,17.73
2022-08-27T12:49:37.000Z,18.35
2022-08-27T12:51:56.006Z,17.93
2022-08-27T12:54:46.550Z,19.00
2022-08-27T12:57:26.955Z,18.73
2022-08-27T13:00:17.032Z,18.07
2022-08-27T13:03:22.447Z,17.23
2022-08-27T13:05:58.923Z,16.93
2022-08-27T13:08:36.617Z,17.40
2022-08-27T13:11:16.502Z,15.73
2022-08-27T13:13:50.360Z,15.73
2022-08-27T13:16:27.802Z,16.80
2022-08-27T13:19:04.847Z,16.47
2022-08-27T13:21:40.012Z,16.40
2022-08-27T13:24:15.649Z,16.17
2022-08-27T13:26:54.949Z,16.50
2022-08-27T13:29:41.675Z,16.63
2022-08-27T13:32:19.155Z,17.17
2022-08-27T13:34:55.589Z,17.27
2022-08-27T13:37:31.854Z,16.73
2022-08-27T13:40:06.762Z,16.02
2022-08-27T13:42:43.738Z,15.93
2022-08-27T13:45:21.239Z,16.20
2022-08-27T13:47:56.409Z,15.67
2022-08-27T13:50:34.063Z,16.67
2022-08-27T13:53:26.835Z,16.77
2022-08-27T13:56:01.885Z,17.20
2022-08-27T13:58:37.637Z,17.53
2022-08-27T14:01:17.738Z,17.40
2022-08-27T14:03:54.953Z,17.93
2022-08-27T14:06:36.542Z,17.50
2022-08-27T14:09:27.860Z,17.13
2022-08-27T14:12:07.083Z,18.13
2022-08-27T14:14:46.457Z,17.77
2022-08-27T14:17:29.715Z,17.57
2022-08-27T14:20:07.213Z,17.17
2022-08-27T14:22:45.867Z,17.43
2022-08-27T14:25:23.116Z,17.73
2022-08-27T14:27:58.330Z,19.37
2022-08-27T14:30:32.938Z,18.80
2022-08-27T14:33:08.497Z,20.73
2022-08-27T14:35:46.111Z,19.97
2022-08-27T14:38:24.571Z,18.60
2022-08-27T14:41:02.198Z,20.17
2022-08-27T14:43:41.852Z,20.70
2022-08-27T14:46:31.353Z,21.47
2022-08-27T14:49:12.886Z,20.77
2022-08-27T14:51:48.196Z,20.27
2022-08-27T14:54:33.368Z,20.90
2022-08-27T14:57:16.619Z,20.90
2022-08-27T14:59:51.783Z,22.23
2022-08-27T15:02:26.765Z,21.80
2022-08-27T15:05:12.548Z,22.40
2022-08-27T15:07:51.230Z,23.13
2022-08-27T15:10:27.204Z,24.70
2022-08-27T15:13:01.243Z,25.03
2022-08-27T15:15:36.320Z,24.43
2022-08-27T15:18:11.126Z,24.37
2022-08-27T15:20:47.058Z,27.30
2022-08-27T15:23:23.288Z,25.53
2022-08-27T15:26:03.250Z,25.07
2022-08-27T15:28:40.048Z,26.03
2022-08-27T15:31:14.337Z,25.80
2022-08-27T15:33:50.917Z,25.47
2022-08-27T15:36:25.267Z,25.60
2022-08-27T15:38:59.672Z,26.70
2022-08-27T15:44:24.325Z,25.83
2022-08-27T15:47:04.076Z,25.10
2022-08-27T15:49:38.420Z,26.13
2022-08-27T15:52:16.161Z,25.70
2022-08-27T15:54:52.364Z,25.60
2022-08-27T15:57:29.746Z,25.97
2022-08-27T16:00:03.865Z,25.97
2022-08-27T16:02:39.130Z,26.17
2022-08-27T16:05:14.313Z,26.17
2022-08-27T16:07:49.522Z,26.70
2022-08-27T16:10:24.385Z,26.17
2022-08-27T16:13:02.573Z,27.43
2022-08-27T16:15:38.689Z,26.80
2022-08-27T16:18:15.080Z,27.63
2022-08-27T16:20:48.878Z,28.30
2022-08-27T16:23:25.055Z,26.93
2022-08-27T16:26:00.888Z,27.47
2022-08-27T16:28:37.429Z,28.10
2022-08-27T16:31:12.096Z,28.30
2022-08-27T16:33:47.833Z,27.40
2022-08-27T16:36:22.256Z,26.53
2022-08-27T16:38:57.523Z,25.27
2022-08-27T16:41:34.813Z,24.27
2022-08-27T16:44:12.743Z,23.50
2022-08-27T16:46:48.174Z,22.87
2022-08-27T16:49:38.946Z,23.07
2022-08-27T16:52:14.313Z,22.90
2022-08-27T16:54:49.329Z,23.67
2022-08-27T16:57:24.600Z,23.23
2022-08-27T17:00:00.973Z,23.60
2022-08-27T17:02:36.467Z,23.17
2022-08-27T17:05:33.562Z,25.23
2022-08-27T17:08:06.546Z,24.20
2022-08-27T17:10:47.976Z,23.87
2022-08-27T17:13:28.252Z,23.70
2022-08-27T17:18:55.859Z,22.73
2022-08-27T17:21:32.077Z,23.13
2022-08-27T17:24:12.451Z,23.73
2022-08-27T17:26:49.079Z,23.20
2022-08-27T17:29:23.585Z,23.87
2022-08-27T17:31:59.793Z,23.93
2022-08-27T17:34:43.751Z,24.33
2022-08-27T17:37:19.031Z,22.93
2022-08-27T17:39:56.331Z,23.53
2022-08-27T17:42:30.861Z,24.43
2022-08-27T17:45:05.579Z,24.20
2022-08-27T17:47:42.401Z,25.53
2022-08-27T17:50:17.150Z,24.50
2022-08-27T17:52:50.734Z,24.87
2022-08-27T17:55:25.401Z,24.50
2022-08-27T17:58:01.509Z,23.10
2022-08-27T18:00:35.778Z,21.57
2022-08-27T18:03:19.771Z,21.97
2022-08-27T18:05:54.703Z,22.20
2022-08-27T18:08:28.795Z,21.67
2022-08-27T18:11:02.276Z,20.73
2022-08-27T18:13:38.333Z,23.00
2022-08-27T18:16:13.109Z,22.70
2022-08-27T18:18:48.314Z,24.70
2022-08-27T18:21:25.590Z,23.80
2022-08-27T18:26:50.183Z,22.57
2022-08-27T18:29:26.834Z,20.83
2022-08-27T18:31:59.984Z,21.07
2022-08-27T18:34:40.753Z,20.60
2022-08-27T18:37:16.058Z,20.93
2022-08-27T18:39:49.625Z,19.53
2022-08-27T18:42:23.676Z,20.37
2022-08-27T18:44:59.144Z,19.90
2022-08-27T18:47:44.679Z,19.60
2022-08-27T18:50:22.224Z,18.57
2022-08-27T18:52:57.260Z,17.77
2022-08-27T18:55:31.633Z,17.10
2022-08-27T18:58:05.336Z,17.73
2022-08-27T19:00:39.385Z,16.40
2022-08-27T19:03:14.425Z,17.00
2022-08-27T19:05:55.108Z,17.20
2022-08-27T19:08:32.844Z,17.43
2022-08-27T19:11:06.526Z,17.80
2022-08-27T19:13:39.803Z,17.43
2022-08-27T19:16:25.004Z,18.50
2022-08-27T19:18:59.405Z,18.73
2022-08-27T19:21:34.601Z,16.90
2022-08-27T19:24:08.723Z,17.37
2022-08-27T19:26:42.671Z,17.73
2022-08-27T19:29:16.912Z,17.13
2022-08-27T19:32:00.854Z,18.00
2022-08-27T19:34:34.370Z,17.00
2022-08-27T19:37:10.486Z,17.13
2022-08-27T19:39:44.840Z,16.83
2022-08-27T19:42:18.148Z,16.93
2022-08-27T19:44:52.974Z,16.83
2022-08-27T19:47:27.439Z,16.57
2022-08-27T19:50:01.539Z,17.27
2022-08-27T19:52:37.065Z,15.53
2022-08-27T19:55:14.535Z,17.17
2022-08-27T19:57:48.461Z,16.80
2022-08-27T20:00:24.103Z,16.50
2022-08-27T20:02:58.128Z,16.23
2022-08-27T20:05:31.625Z,16.40
2022-08-27T20:08:08.023Z,16.27
2022-08-27T20:10:42.403Z,16.00
2022-08-27T20:13:16.036Z,15.27
2022-08-27T20:15:50.190Z,15.47
2022-08-27T20:18:24.550Z,14.83
2022-08-27T20:20:59.010Z,15.13
2022-08-27T20:23:41.887Z,15.30
2022-08-27T20:26:15.562Z,14.33
2022-08-27T20:28:49.252Z,15.20
2022-08-27T20:31:22.714Z,15.30
2022-08-27T20:33:56.570Z,14.70
2022-08-27T20:36:59.951Z,15.30
2022-08-27T20:39:35.425Z,15.00
2022-08-27T20:42:10.626Z,15.23
2022-08-27T20:44:43.602Z,15.87
2022-08-27T20:47:16.783Z,15.60
2022-08-27T20:49:49.366Z,14.97
2022-08-27T20:52:22.304Z,14.83
2022-08-27T20:54:58.708Z,14.07
2022-08-27T20:57:31.963Z,15.10
2022-08-27T21:00:23.544Z,14.43
2022-08-27T21:02:58.716Z,14.33
2022-08-27T21:05:35.301Z,13.77
2022-08-27T21:08:10.607Z,14.23
2022-08-27T21:10:48.814Z,14.13
2022-08-27T21:13:23.005Z,13.70
2022-08-27T21:15:56.847Z,14.73
2022-08-27T21:18:32.868Z,13.73
2022-08-27T21:21:24.019Z,14.60
2022-08-27T21:23:58.112Z,14.47
2022-08-27T21:26:33.621Z,14.00
2022-08-27T21:29:08.684Z,14.50
2022-08-27T21:31:42.397Z,14.10
2022-08-27T21:34:16.229Z,15.33
2022-08-27T21:36:49.571Z,14.50
2022-08-27T21:39:23.099Z,13.30
2022-08-27T21:41:58.649Z,13.70
2022-08-27T21:44:32.787Z,14.77
2022-08-27T21:47:07.342Z,14.07
2022-08-27T21:49:41.199Z,14.20
2022-08-27T21:52:15.065Z,13.90
2022-08-27T21:54:48.758Z,14.93
2022-08-27T21:57:24.650Z,14.30
2022-08-27T21:59:59.694Z,13.83
2022-08-27T22:02:40.306Z,13.70
2022-08-27T22:05:15.168Z,15.20
2022-08-27T22:07:51.126Z,14.87
2022-08-27T22:10:24.476Z,15.23
2022-08-27T22:13:00.413Z,17.13
2022-08-27T22:15:34.233Z,16.97
2022-08-27T22:18:08.781Z,17.50
2022-08-27T22:20:43.050Z,17.87
2022-08-27T22:23:17.549Z,18.23
2022-08-27T22:25:51.164Z,17.90
2022-08-27T22:28:28.340Z,19.00
2022-08-27T22:31:01.580Z,18.60
2022-08-27T22:33:38.494Z,20.03
2022-08-27T22:36:12.939Z,19.70
2022-08-27T22:38:46.174Z,19.20
2022-08-27T22:41:21.246Z,17.93
2022-08-27T22:43:57.959Z,17.33
2022-08-27T22:46:32.293Z,17.13
2022-08-27T22:49:05.862Z,16.87
2022-08-27T22:51:39.971Z,16.23
2022-08-27T22:54:14.084Z,14.80
2022-08-27T22:56:53.050Z,13.90
2022-08-27T22:59:28.635Z,13.90
2022-08-27T23:02:02.773Z,11.70
2022-08-27T23:04:54.137Z,12.50
2022-08-27T23:07:28.687Z,11.40
2022-08-27T23:10:02.453Z,11.17
2022-08-27T23:12:38.813Z,11.70
2022-08-27T23:15:15.645Z,10.87
2022-08-27T23:17:49.077Z,10.80
2022-08-27T23:20:23.664Z,9.87
2022-08-27T23:22:58.331Z,10.20
2022-08-27T23:25:48.590Z,10.10
2022-08-27T23:28:22.144Z,10.57
2022-08-27T23:30:57.664Z,9.90
2022-08-27T23:33:31.993Z,10.30
2022-08-27T23:36:04.871Z,10.70
2022-08-27T23:38:41.153Z,10.33
2022-08-27T23:41:16.737Z,9.93
2022-08-27T23:43:50.859Z,10.50
2022-08-27T23:46:26.386Z,10.97
2022-08-27T23:48:59.794Z,10.73
2022-08-27T23:51:33.602Z,11.23
2022-08-27T23:54:07.044Z,10.90
2022-08-27T23:56:41.032Z,10.40
2022-08-27T23:59:15.024Z,10.57
